sensor_id;sensor_type;location;lat;lon;timestamp;temperature;humidity
4183;DHT22;2105;52.300;9.182;2022-10-31T00:01:44;16.30;10.30
4183;DHT22;2105;52.300;9.182;2022-10-31T00:04:11;16.20;99.90
4183;DHT22;2105;52.300;9.182;2022-10-31T00:06:38;16.20;1.00
4183;DHT22;2105;52.300;9.182;2022-10-31T00:09:05;16.20;99.90
4183;DHT22;2105;52.300;9.182;2022-10-31T00:11:32;16.20;1.00
4183;DHT22;2105;52.300;9.182;2022-10-31T00:13:59;16.20;1.00
4183;DHT22;2105;52.300;9.182;2022-10-31T00:16:27;16.20;1.00
4183;DHT22;2105;52.300;9.182;2022-10-31T00:18:56;16.10;1.00
4183;DHT22;2105;52.300;9.182;2022-10-31T00:21:24;16.10;99.90
4183;DHT22;2105;52.300;9.182;2022-10-31T00:23:52;16.00;1.00
4183;DHT22;2105;52.300;9.182;2022-10-31T00:26:19;16.00;99.90
4183;DHT22;2105;52.300;9.182;2022-10-31T00:28:46;16.10;1.00
4183;DHT22;2105;52.300;9.182;2022-10-31T00:31:13;16.00;1.00
4183;DHT22;2105;52.300;9.182;2022-10-31T00:33:42;16.10;1.00
4183;DHT22;2105;52.300;9.182;2022-10-31T00:36:11;16.10;99.90
4183;DHT22;2105;52.300;9.182;2022-10-31T00:38:38;16.00;1.00
4183;DHT22;2105;52.300;9.182;2022-10-31T00:41:05;16.00;1.00
4183;DHT22;2105;52.300;9.182;2022-10-31T00:43:32;16.10;56.40
4183;DHT22;2105;52.300;9.182;2022-10-31T00:45:59;16.10;99.90
4183;DHT22;2105;52.300;9.182;2022-10-31T00:48:25;16.10;99.90
4183;DHT22;2105;52.300;9.182;2022-10-31T00:50:54;16.20;1.00
4183;DHT22;2105;52.300;9.182;2022-10-31T00:53:21;16.10;99.90
4183;DHT22;2105;52.300;9.182;2022-10-31T00:55:47;16.20;1.00
4183;DHT22;2105;52.300;9.182;2022-10-31T00:58:14;16.10;1.00
4183;DHT22;2105;52.300;9.182;2022-10-31T01:00:41;16.20;1.00
4183;DHT22;2105;52.300;9.182;2022-10-31T01:03:08;16.20;1.00
4183;DHT22;2105;52.300;9.182;2022-10-31T01:05:35;16.20;1.00
4183;DHT22;2105;52.300;9.182;2022-10-31T01:08:04;16.10;1.00
4183;DHT22;2105;52.300;9.182;2022-10-31T01:10:30;16.10;1.00
4183;DHT22;2105;52.300;9.182;2022-10-31T01:12:57;16.00;1.00
4183;DHT22;2105;52.300;9.182;2022-10-31T01:15:24;16.00;99.90
4183;DHT22;2105;52.300;9.182;2022-10-31T01:17:51;15.90;1.00
4183;DHT22;2105;52.300;9.182;2022-10-31T01:20:18;15.90;99.90
4183;DHT22;2105;52.300;9.182;2022-10-31T01:22:45;15.80;48.60
4183;DHT22;2105;52.300;9.182;2022-10-31T01:25:13;15.80;1.00
4183;DHT22;2105;52.300;9.182;2022-10-31T01:27:40;15.70;16.40
4183;DHT22;2105;52.300;9.182;2022-10-31T01:30:07;15.70;99.90
4183;DHT22;2105;52.300;9.182;2022-10-31T01:32:34;15.70;99.90
4183;DHT22;2105;52.300;9.182;2022-10-31T01:35:01;15.60;1.00
4183;DHT22;2105;52.300;9.182;2022-10-31T01:37:28;15.60;1.00
4183;DHT22;2105;52.300;9.182;2022-10-31T01:39:54;15.50;1.00
4183;DHT22;2105;52.300;9.182;2022-10-31T01:42:23;15.50;99.90
4183;DHT22;2105;52.300;9.182;2022-10-31T01:44:58;15.40;99.90
4183;DHT22;2105;52.300;9.182;2022-10-31T01:47:34;15.50;99.90
4183;DHT22;2105;52.300;9.182;2022-10-31T01:50:04;15.40;31.00
4183;DHT22;2105;52.300;9.182;2022-10-31T01:52:35;15.30;99.90
4183;DHT22;2105;52.300;9.182;2022-10-31T01:55:06;15.20;99.90
4183;DHT22;2105;52.300;9.182;2022-10-31T01:57:35;15.20;99.90
4183;DHT22;2105;52.300;9.182;2022-10-31T02:00:08;15.20;99.90
4183;DHT22;2105;52.300;9.182;2022-10-31T02:02:35;15.10;99.90
4183;DHT22;2105;52.300;9.182;2022-10-31T02:05:06;15.20;99.90
4183;DHT22;2105;52.300;9.182;2022-10-31T02:07:37;15.10;99.90
4183;DHT22;2105;52.300;9.182;2022-10-31T02:10:05;15.10;99.90
4183;DHT22;2105;52.300;9.182;2022-10-31T02:12:32;15.10;99.90
4183;DHT22;2105;52.300;9.182;2022-10-31T02:15:04;15.00;99.90
4183;DHT22;2105;52.300;9.182;2022-10-31T02:17:31;14.90;99.90
4183;DHT22;2105;52.300;9.182;2022-10-31T02:20:05;14.80;99.90
4183;DHT22;2105;52.300;9.182;2022-10-31T02:22:40;14.80;1.00
4183;DHT22;2105;52.300;9.182;2022-10-31T02:25:22;14.80;1.00
4183;DHT22;2105;52.300;9.182;2022-10-31T02:28:18;14.80;1.00
4183;DHT22;2105;52.300;9.182;2022-10-31T02:31:12;14.70;1.00
4183;DHT22;2105;52.300;9.182;2022-10-31T02:33:43;14.60;1.00
4183;DHT22;2105;52.300;9.182;2022-10-31T02:36:16;14.50;1.00
4183;DHT22;2105;52.300;9.182;2022-10-31T02:38:51;14.60;1.00
4183;DHT22;2105;52.300;9.182;2022-10-31T02:41:29;14.50;1.00
4183;DHT22;2105;52.300;9.182;2022-10-31T02:44:05;14.40;1.00
4183;DHT22;2105;52.300;9.182;2022-10-31T02:46:35;14.30;1.00
4183;DHT22;2105;52.300;9.182;2022-10-31T02:49:09;14.20;1.00
4183;DHT22;2105;52.300;9.182;2022-10-31T02:51:37;14.20;54.00
4183;DHT22;2105;52.300;9.182;2022-10-31T02:54:05;14.20;99.90
4183;DHT22;2105;52.300;9.182;2022-10-31T02:56:31;14.20;99.90
4183;DHT22;2105;52.300;9.182;2022-10-31T02:59:00;14.20;99.90
4183;DHT22;2105;52.300;9.182;2022-10-31T03:01:48;14.20;99.90
4183;DHT22;2105;52.300;9.182;2022-10-31T03:04:30;14.20;99.90
4183;DHT22;2105;52.300;9.182;2022-10-31T03:07:04;14.30;99.90
4183;DHT22;2105;52.300;9.182;2022-10-31T03:09:39;14.30;99.90
4183;DHT22;2105;52.300;9.182;2022-10-31T03:12:11;14.20;99.90
4183;DHT22;2105;52.300;9.182;2022-10-31T03:14:41;14.20;99.90
4183;DHT22;2105;52.300;9.182;2022-10-31T03:17:15;14.20;99.90
4183;DHT22;2105;52.300;9.182;2022-10-31T03:19:46;14.20;99.90
4183;DHT22;2105;52.300;9.182;2022-10-31T03:22:17;14.10;99.90
4183;DHT22;2105;52.300;9.182;2022-10-31T03:24:46;14.10;99.90
4183;DHT22;2105;52.300;9.182;2022-10-31T03:27:18;14.10;99.90
4183;DHT22;2105;52.300;9.182;2022-10-31T03:29:47;14.00;99.90
4183;DHT22;2105;52.300;9.182;2022-10-31T03:32:19;14.00;99.90
4183;DHT22;2105;52.300;9.182;2022-10-31T03:34:47;14.00;99.90
4183;DHT22;2105;52.300;9.182;2022-10-31T03:37:18;14.00;99.90
4183;DHT22;2105;52.300;9.182;2022-10-31T03:39:47;13.90;99.90
4183;DHT22;2105;52.300;9.182;2022-10-31T03:42:20;13.90;99.90
4183;DHT22;2105;52.300;9.182;2022-10-31T03:44:53;14.00;99.90
4183;DHT22;2105;52.300;9.182;2022-10-31T03:47:24;14.00;99.90
4183;DHT22;2105;52.300;9.182;2022-10-31T03:49:51;14.00;99.90
4183;DHT22;2105;52.300;9.182;2022-10-31T03:52:23;14.00;99.90
4183;DHT22;2105;52.300;9.182;2022-10-31T03:54:54;14.00;99.90
4183;DHT22;2105;52.300;9.182;2022-10-31T03:57:25;14.00;99.90
4183;DHT22;2105;52.300;9.182;2022-10-31T03:59:57;13.90;99.90
4183;DHT22;2105;52.300;9.182;2022-10-31T04:02:30;13.90;99.90
4183;DHT22;2105;52.300;9.182;2022-10-31T04:04:57;13.90;99.90
4183;DHT22;2105;52.300;9.182;2022-10-31T04:07:28;13.80;99.90
4183;DHT22;2105;52.300;9.182;2022-10-31T04:09:57;13.80;99.90
4183;DHT22;2105;52.300;9.182;2022-10-31T04:12:26;13.80;99.90
4183;DHT22;2105;52.300;9.182;2022-10-31T04:14:55;13.80;99.90
4183;DHT22;2105;52.300;9.182;2022-10-31T04:17:23;13.70;99.90
4183;DHT22;2105;52.300;9.182;2022-10-31T04:19:53;13.60;99.90
4183;DHT22;2105;52.300;9.182;2022-10-31T04:22:20;13.50;99.90
4183;DHT22;2105;52.300;9.182;2022-10-31T04:24:47;13.30;99.90
4183;DHT22;2105;52.300;9.182;2022-10-31T04:27:13;13.20;99.90
4183;DHT22;2105;52.300;9.182;2022-10-31T04:29:40;13.10;99.90
4183;DHT22;2105;52.300;9.182;2022-10-31T04:32:07;13.10;99.90
4183;DHT22;2105;52.300;9.182;2022-10-31T04:34:34;13.20;99.90
4183;DHT22;2105;52.300;9.182;2022-10-31T04:37:02;13.10;99.90
4183;DHT22;2105;52.300;9.182;2022-10-31T04:39:28;13.00;99.90
4183;DHT22;2105;52.300;9.182;2022-10-31T04:41:55;13.00;99.90
4183;DHT22;2105;52.300;9.182;2022-10-31T04:44:22;12.90;99.90
4183;DHT22;2105;52.300;9.182;2022-10-31T04:46:49;12.80;99.90
4183;DHT22;2105;52.300;9.182;2022-10-31T04:49:15;12.80;99.90
4183;DHT22;2105;52.300;9.182;2022-10-31T04:51:42;12.70;99.90
4183;DHT22;2105;52.300;9.182;2022-10-31T04:54:10;12.80;99.90
4183;DHT22;2105;52.300;9.182;2022-10-31T04:56:37;12.80;99.90
4183;DHT22;2105;52.300;9.182;2022-10-31T04:59:04;12.80;99.90
4183;DHT22;2105;52.300;9.182;2022-10-31T05:01:30;12.70;99.90
4183;DHT22;2105;52.300;9.182;2022-10-31T05:03:57;12.60;99.90
4183;DHT22;2105;52.300;9.182;2022-10-31T05:06:24;12.70;99.90
4183;DHT22;2105;52.300;9.182;2022-10-31T05:08:50;12.70;99.90
4183;DHT22;2105;52.300;9.182;2022-10-31T05:11:19;12.80;99.90
4183;DHT22;2105;52.300;9.182;2022-10-31T05:13:45;12.80;99.90
4183;DHT22;2105;52.300;9.182;2022-10-31T05:16:12;12.80;99.90
4183;DHT22;2105;52.300;9.182;2022-10-31T05:18:39;12.80;99.90
4183;DHT22;2105;52.300;9.182;2022-10-31T05:21:06;12.80;99.90
4183;DHT22;2105;52.300;9.182;2022-10-31T05:23:32;12.80;99.90
4183;DHT22;2105;52.300;9.182;2022-10-31T05:25:59;12.80;99.90
4183;DHT22;2105;52.300;9.182;2022-10-31T05:28:27;12.80;99.90
4183;DHT22;2105;52.300;9.182;2022-10-31T05:30:54;12.60;99.90
4183;DHT22;2105;52.300;9.182;2022-10-31T05:33:21;12.60;99.90
4183;DHT22;2105;52.300;9.182;2022-10-31T05:35:48;12.40;99.90
4183;DHT22;2105;52.300;9.182;2022-10-31T05:38:14;12.20;99.90
4183;DHT22;2105;52.300;9.182;2022-10-31T05:40:41;12.00;99.90
4183;DHT22;2105;52.300;9.182;2022-10-31T05:43:08;12.00;99.90
4183;DHT22;2105;52.300;9.182;2022-10-31T05:45:36;12.00;99.90
4183;DHT22;2105;52.300;9.182;2022-10-31T05:48:03;11.90;99.90
4183;DHT22;2105;52.300;9.182;2022-10-31T05:50:31;11.80;99.90
4183;DHT22;2105;52.300;9.182;2022-10-31T05:52:59;11.80;99.90
4183;DHT22;2105;52.300;9.182;2022-10-31T05:55:26;11.80;99.90
4183;DHT22;2105;52.300;9.182;2022-10-31T05:57:54;11.70;99.90
4183;DHT22;2105;52.300;9.182;2022-10-31T06:00:21;11.50;99.90
4183;DHT22;2105;52.300;9.182;2022-10-31T06:02:57;11.50;99.90
4183;DHT22;2105;52.300;9.182;2022-10-31T06:05:24;11.50;99.90
4183;DHT22;2105;52.300;9.182;2022-10-31T06:07:51;11.60;99.90
4183;DHT22;2105;52.300;9.182;2022-10-31T06:10:18;11.50;99.90
4183;DHT22;2105;52.300;9.182;2022-10-31T06:12:46;11.40;99.90
4183;DHT22;2105;52.300;9.182;2022-10-31T06:15:13;11.40;99.90
4183;DHT22;2105;52.300;9.182;2022-10-31T06:17:40;11.50;99.90
4183;DHT22;2105;52.300;9.182;2022-10-31T06:20:09;11.40;99.90
4183;DHT22;2105;52.300;9.182;2022-10-31T06:22:36;11.30;99.90
4183;DHT22;2105;52.300;9.182;2022-10-31T06:25:03;11.30;99.90
4183;DHT22;2105;52.300;9.182;2022-10-31T06:27:30;11.40;99.90
4183;DHT22;2105;52.300;9.182;2022-10-31T06:29:57;11.40;99.90
4183;DHT22;2105;52.300;9.182;2022-10-31T06:32:24;11.40;99.90
4183;DHT22;2105;52.300;9.182;2022-10-31T06:34:50;11.40;99.90
4183;DHT22;2105;52.300;9.182;2022-10-31T06:37:18;11.40;99.90
4183;DHT22;2105;52.300;9.182;2022-10-31T06:39:45;11.40;99.90
4183;DHT22;2105;52.300;9.182;2022-10-31T06:42:12;11.40;99.90
4183;DHT22;2105;52.300;9.182;2022-10-31T06:44:39;11.40;99.90
4183;DHT22;2105;52.300;9.182;2022-10-31T06:47:06;11.40;99.90
4183;DHT22;2105;52.300;9.182;2022-10-31T06:49:33;11.30;99.90
4183;DHT22;2105;52.300;9.182;2022-10-31T06:51:59;11.30;99.90
4183;DHT22;2105;52.300;9.182;2022-10-31T06:54:27;11.40;99.90
4183;DHT22;2105;52.300;9.182;2022-10-31T06:56:54;11.50;99.90
4183;DHT22;2105;52.300;9.182;2022-10-31T06:59:21;11.50;99.90
4183;DHT22;2105;52.300;9.182;2022-10-31T07:01:49;11.60;99.90
4183;DHT22;2105;52.300;9.182;2022-10-31T07:04:16;11.70;99.90
4183;DHT22;2105;52.300;9.182;2022-10-31T07:06:43;11.70;99.90
4183;DHT22;2105;52.300;9.182;2022-10-31T07:09:09;11.70;99.90
4183;DHT22;2105;52.300;9.182;2022-10-31T07:11:37;11.70;99.90
4183;DHT22;2105;52.300;9.182;2022-10-31T07:14:04;11.80;99.90
4183;DHT22;2105;52.300;9.182;2022-10-31T07:16:31;11.80;99.90
4183;DHT22;2105;52.300;9.182;2022-10-31T07:18:58;11.90;99.90
4183;DHT22;2105;52.300;9.182;2022-10-31T07:21:25;12.00;99.90
4183;DHT22;2105;52.300;9.182;2022-10-31T07:23:51;12.20;99.90
4183;DHT22;2105;52.300;9.182;2022-10-31T07:26:18;12.40;99.90
4183;DHT22;2105;52.300;9.182;2022-10-31T07:28:47;12.70;99.90
4183;DHT22;2105;52.300;9.182;2022-10-31T07:31:13;13.00;99.90
4183;DHT22;2105;52.300;9.182;2022-10-31T07:33:40;13.40;99.90
4183;DHT22;2105;52.300;9.182;2022-10-31T07:36:07;13.80;99.90
4183;DHT22;2105;52.300;9.182;2022-10-31T07:38:34;14.30;99.90
4183;DHT22;2105;52.300;9.182;2022-10-31T07:41:00;14.60;99.90
4183;DHT22;2105;52.300;9.182;2022-10-31T07:43:27;14.70;99.90
4183;DHT22;2105;52.300;9.182;2022-10-31T07:45:55;14.60;29.60
4183;DHT22;2105;52.300;9.182;2022-10-31T07:48:22;14.50;62.30
4183;DHT22;2105;52.300;9.182;2022-10-31T07:50:49;14.70;99.90
4183;DHT22;2105;52.300;9.182;2022-10-31T07:53:16;14.90;72.80
4183;DHT22;2105;52.300;9.182;2022-10-31T07:55:43;14.80;17.00
4183;DHT22;2105;52.300;9.182;2022-10-31T07:58:13;14.90;76.60
4183;DHT22;2105;52.300;9.182;2022-10-31T08:00:42;15.10;99.90
4183;DHT22;2105;52.300;9.182;2022-10-31T08:03:12;15.40;91.40
4183;DHT22;2105;52.300;9.182;2022-10-31T08:05:40;15.90;25.60
4183;DHT22;2105;52.300;9.182;2022-10-31T08:08:08;16.30;1.00
4183;DHT22;2105;52.300;9.182;2022-10-31T08:10:35;16.60;1.00
4183;DHT22;2105;52.300;9.182;2022-10-31T08:13:04;16.90;1.00
4183;DHT22;2105;52.300;9.182;2022-10-31T08:15:32;17.40;99.90
4183;DHT22;2105;52.300;9.182;2022-10-31T08:17:59;17.70;99.90
4183;DHT22;2105;52.300;9.182;2022-10-31T08:20:28;18.00;99.90
4183;DHT22;2105;52.300;9.182;2022-10-31T08:22:56;18.40;99.90
4183;DHT22;2105;52.300;9.182;2022-10-31T08:25:24;18.70;1.00
4183;DHT22;2105;52.300;9.182;2022-10-31T08:27:51;18.90;99.90
4183;DHT22;2105;52.300;9.182;2022-10-31T08:30:18;19.20;1.00
4183;DHT22;2105;52.300;9.182;2022-10-31T08:32:46;19.40;99.90
4183;DHT22;2105;52.300;9.182;2022-10-31T08:35:13;19.50;1.00
4183;DHT22;2105;52.300;9.182;2022-10-31T08:37:41;19.40;1.00
4183;DHT22;2105;52.300;9.182;2022-10-31T08:40:09;19.20;1.00
4183;DHT22;2105;52.300;9.182;2022-10-31T08:42:36;19.10;1.00
4183;DHT22;2105;52.300;9.182;2022-10-31T08:45:04;19.00;1.00
4183;DHT22;2105;52.300;9.182;2022-10-31T08:47:30;19.00;1.00
4183;DHT22;2105;52.300;9.182;2022-10-31T08:49:57;19.10;1.00
4183;DHT22;2105;52.300;9.182;2022-10-31T08:52:24;19.00;1.00
4183;DHT22;2105;52.300;9.182;2022-10-31T08:54:53;19.10;99.90
4183;DHT22;2105;52.300;9.182;2022-10-31T08:57:19;19.20;99.90
4183;DHT22;2105;52.300;9.182;2022-10-31T08:59:46;19.10;1.00
4183;DHT22;2105;52.300;9.182;2022-10-31T09:02:13;19.10;1.00
4183;DHT22;2105;52.300;9.182;2022-10-31T09:04:40;19.10;1.00
4183;DHT22;2105;52.300;9.182;2022-10-31T09:07:07;18.90;20.60
4183;DHT22;2105;52.300;9.182;2022-10-31T09:09:33;18.80;99.90
4183;DHT22;2105;52.300;9.182;2022-10-31T09:12:02;18.60;99.90
4183;DHT22;2105;52.300;9.182;2022-10-31T09:14:28;18.40;1.00
4183;DHT22;2105;52.300;9.182;2022-10-31T09:16:55;18.20;1.00
4183;DHT22;2105;52.300;9.182;2022-10-31T09:19:22;18.20;1.00
4183;DHT22;2105;52.300;9.182;2022-10-31T09:21:52;18.10;1.00
4183;DHT22;2105;52.300;9.182;2022-10-31T09:24:18;17.90;99.90
4183;DHT22;2105;52.300;9.182;2022-10-31T09:26:45;17.80;1.00
4183;DHT22;2105;52.300;9.182;2022-10-31T09:29:13;17.70;99.90
4183;DHT22;2105;52.300;9.182;2022-10-31T09:31:40;17.70;99.90
4183;DHT22;2105;52.300;9.182;2022-10-31T09:34:07;17.70;99.90
4183;DHT22;2105;52.300;9.182;2022-10-31T09:36:34;17.70;99.90
4183;DHT22;2105;52.300;9.182;2022-10-31T09:39:00;17.70;99.90
4183;DHT22;2105;52.300;9.182;2022-10-31T09:41:32;17.60;1.00
4183;DHT22;2105;52.300;9.182;2022-10-31T09:44:10;17.70;99.90
4183;DHT22;2105;52.300;9.182;2022-10-31T09:46:49;17.70;1.00
4183;DHT22;2105;52.300;9.182;2022-10-31T09:49:37;17.90;99.90
4183;DHT22;2105;52.300;9.182;2022-10-31T09:52:13;18.00;4.60
4183;DHT22;2105;52.300;9.182;2022-10-31T09:54:46;18.20;1.00
4183;DHT22;2105;52.300;9.182;2022-10-31T09:57:17;18.20;1.00
4183;DHT22;2105;52.300;9.182;2022-10-31T09:59:48;18.20;1.00
4183;DHT22;2105;52.300;9.182;2022-10-31T10:02:20;18.30;99.90
4183;DHT22;2105;52.300;9.182;2022-10-31T10:04:52;18.30;99.90
4183;DHT22;2105;52.300;9.182;2022-10-31T10:07:40;18.40;99.90
4183;DHT22;2105;52.300;9.182;2022-10-31T10:10:14;18.50;99.90
4183;DHT22;2105;52.300;9.182;2022-10-31T10:12:52;18.50;1.00
4183;DHT22;2105;52.300;9.182;2022-10-31T10:15:43;18.40;8.80
4183;DHT22;2105;52.300;9.182;2022-10-31T10:18:22;18.40;99.90
4183;DHT22;2105;52.300;9.182;2022-10-31T10:21:03;18.40;99.90
4183;DHT22;2105;52.300;9.182;2022-10-31T10:23:40;18.30;1.00
4183;DHT22;2105;52.300;9.182;2022-10-31T10:26:15;18.30;99.90
4183;DHT22;2105;52.300;9.182;2022-10-31T10:28:44;18.40;1.00
4183;DHT22;2105;52.300;9.182;2022-10-31T10:31:14;18.30;1.00
4183;DHT22;2105;52.300;9.182;2022-10-31T10:33:47;18.30;31.10
4183;DHT22;2105;52.300;9.182;2022-10-31T10:36:21;18.30;99.90
4183;DHT22;2105;52.300;9.182;2022-10-31T10:38:52;18.30;1.00
4183;DHT22;2105;52.300;9.182;2022-10-31T10:41:21;18.50;55.70
4183;DHT22;2105;52.300;9.182;2022-10-31T10:43:49;18.50;1.00
4183;DHT22;2105;52.300;9.182;2022-10-31T10:46:19;18.60;1.00
4183;DHT22;2105;52.300;9.182;2022-10-31T10:49:12;18.60;1.00
4183;DHT22;2105;52.300;9.182;2022-10-31T10:51:45;18.70;46.20
4183;DHT22;2105;52.300;9.182;2022-10-31T10:57:22;18.60;99.90
4183;DHT22;2105;52.300;9.182;2022-10-31T10:59:50;18.60;99.90
4183;DHT22;2105;52.300;9.182;2022-10-31T11:02:18;18.60;1.00
4183;DHT22;2105;52.300;9.182;2022-10-31T11:04:49;18.70;1.00
4183;DHT22;2105;52.300;9.182;2022-10-31T11:07:17;18.70;99.90
4183;DHT22;2105;52.300;9.182;2022-10-31T11:09:44;18.70;1.00
4183;DHT22;2105;52.300;9.182;2022-10-31T11:12:19;18.70;99.90
4183;DHT22;2105;52.300;9.182;2022-10-31T11:14:50;18.60;1.00
4183;DHT22;2105;52.300;9.182;2022-10-31T11:17:25;18.60;1.00
4183;DHT22;2105;52.300;9.182;2022-10-31T11:20:24;18.50;1.00
4183;DHT22;2105;52.300;9.182;2022-10-31T11:23:02;18.40;1.00
4183;DHT22;2105;52.300;9.182;2022-10-31T11:25:29;18.60;46.40
4183;DHT22;2105;52.300;9.182;2022-10-31T11:28:00;18.60;1.00
4183;DHT22;2105;52.300;9.182;2022-10-31T11:30:27;18.60;1.00
4183;DHT22;2105;52.300;9.182;2022-10-31T11:32:55;18.60;1.00
4183;DHT22;2105;52.300;9.182;2022-10-31T11:35:24;18.60;1.00
4183;DHT22;2105;52.300;9.182;2022-10-31T11:37:54;18.70;1.00
4183;DHT22;2105;52.300;9.182;2022-10-31T11:40:27;18.70;1.00
4183;DHT22;2105;52.300;9.182;2022-10-31T11:42:56;18.70;1.00
4183;DHT22;2105;52.300;9.182;2022-10-31T11:45:33;18.60;1.00
4183;DHT22;2105;52.300;9.182;2022-10-31T11:48:12;18.60;1.00
4183;DHT22;2105;52.300;9.182;2022-10-31T11:50:48;18.50;1.00
4183;DHT22;2105;52.300;9.182;2022-10-31T11:53:18;18.40;1.00
4183;DHT22;2105;52.300;9.182;2022-10-31T11:55:46;18.50;99.90
4183;DHT22;2105;52.300;9.182;2022-10-31T11:58:23;18.50;99.90
4183;DHT22;2105;52.300;9.182;2022-10-31T12:00:52;18.50;1.00
4183;DHT22;2105;52.300;9.182;2022-10-31T12:03:41;18.60;1.00
4183;DHT22;2105;52.300;9.182;2022-10-31T12:06:13;18.60;99.90
4183;DHT22;2105;52.300;9.182;2022-10-31T12:08:43;18.70;1.00
4183;DHT22;2105;52.300;9.182;2022-10-31T12:11:19;18.90;99.90
4183;DHT22;2105;52.300;9.182;2022-10-31T12:13:58;19.00;99.90
4183;DHT22;2105;52.300;9.182;2022-10-31T12:16:31;19.10;99.90
4183;DHT22;2105;52.300;9.182;2022-10-31T12:19:03;19.10;19.10
4183;DHT22;2105;52.300;9.182;2022-10-31T12:21:57;19.10;99.90
4183;DHT22;2105;52.300;9.182;2022-10-31T12:24:39;19.10;99.90
4183;DHT22;2105;52.300;9.182;2022-10-31T12:27:20;19.20;99.90
4183;DHT22;2105;52.300;9.182;2022-10-31T12:30:02;19.20;99.90
4183;DHT22;2105;52.300;9.182;2022-10-31T12:32:37;19.30;30.90
4183;DHT22;2105;52.300;9.182;2022-10-31T12:35:33;19.50;1.00
4183;DHT22;2105;52.300;9.182;2022-10-31T12:38:23;19.60;1.00
4183;DHT22;2105;52.300;9.182;2022-10-31T12:41:01;19.50;1.00
4183;DHT22;2105;52.300;9.182;2022-10-31T12:43:39;19.60;1.00
4183;DHT22;2105;52.300;9.182;2022-10-31T12:46:16;19.60;99.90
4183;DHT22;2105;52.300;9.182;2022-10-31T12:49:06;19.50;99.90
4183;DHT22;2105;52.300;9.182;2022-10-31T12:51:40;19.40;1.00
4183;DHT22;2105;52.300;9.182;2022-10-31T12:54:30;19.30;1.00
4183;DHT22;2105;52.300;9.182;2022-10-31T12:57:06;19.40;1.00
4183;DHT22;2105;52.300;9.182;2022-10-31T12:59:36;19.40;77.70
4183;DHT22;2105;52.300;9.182;2022-10-31T13:02:13;19.30;99.90
4183;DHT22;2105;52.300;9.182;2022-10-31T13:04:48;19.40;99.90
4183;DHT22;2105;52.300;9.182;2022-10-31T13:07:19;19.40;99.90
4183;DHT22;2105;52.300;9.182;2022-10-31T13:09:56;19.40;99.90
4183;DHT22;2105;52.300;9.182;2022-10-31T13:12:27;19.30;99.90
4183;DHT22;2105;52.300;9.182;2022-10-31T13:14:57;19.30;99.90
4183;DHT22;2105;52.300;9.182;2022-10-31T13:17:28;19.20;1.00
4183;DHT22;2105;52.300;9.182;2022-10-31T13:20:11;19.10;1.00
4183;DHT22;2105;52.300;9.182;2022-10-31T13:22:42;18.90;1.00
4183;DHT22;2105;52.300;9.182;2022-10-31T13:25:15;18.80;99.90
4183;DHT22;2105;52.300;9.182;2022-10-31T13:27:47;18.80;99.90
4183;DHT22;2105;52.300;9.182;2022-10-31T13:30:17;18.70;1.00
4183;DHT22;2105;52.300;9.182;2022-10-31T13:32:49;18.70;99.90
4183;DHT22;2105;52.300;9.182;2022-10-31T13:35:22;18.70;99.90
4183;DHT22;2105;52.300;9.182;2022-10-31T13:38:00;18.70;1.00
4183;DHT22;2105;52.300;9.182;2022-10-31T13:40:38;18.60;1.00
4183;DHT22;2105;52.300;9.182;2022-10-31T13:43:12;18.60;1.00
4183;DHT22;2105;52.300;9.182;2022-10-31T13:45:49;18.60;1.00
4183;DHT22;2105;52.300;9.182;2022-10-31T13:48:34;18.60;77.50
4183;DHT22;2105;52.300;9.182;2022-10-31T13:51:03;18.50;99.90
4183;DHT22;2105;52.300;9.182;2022-10-31T13:53:38;18.50;1.00
4183;DHT22;2105;52.300;9.182;2022-10-31T13:56:18;18.40;1.00
4183;DHT22;2105;52.300;9.182;2022-10-31T13:59:00;18.30;1.00
4183;DHT22;2105;52.300;9.182;2022-10-31T14:01:27;18.20;99.90
4183;DHT22;2105;52.300;9.182;2022-10-31T14:04:04;18.20;1.00
4183;DHT22;2105;52.300;9.182;2022-10-31T14:06:41;18.20;1.00
4183;DHT22;2105;52.300;9.182;2022-10-31T14:09:25;18.10;1.00
4183;DHT22;2105;52.300;9.182;2022-10-31T14:11:55;18.00;1.00
4183;DHT22;2105;52.300;9.182;2022-10-31T14:14:26;17.90;1.00
4183;DHT22;2105;52.300;9.182;2022-10-31T14:16:57;17.90;99.90
4183;DHT22;2105;52.300;9.182;2022-10-31T14:19:24;17.80;1.00
4183;DHT22;2105;52.300;9.182;2022-10-31T14:21:52;17.80;99.90
4183;DHT22;2105;52.300;9.182;2022-10-31T14:24:34;17.80;99.90
4183;DHT22;2105;52.300;9.182;2022-10-31T14:29:46;17.80;1.00
4183;DHT22;2105;52.300;9.182;2022-10-31T14:32:19;17.90;99.90
4183;DHT22;2105;52.300;9.182;2022-10-31T14:34:53;17.80;1.00
4183;DHT22;2105;52.300;9.182;2022-10-31T14:37:35;17.90;1.00
4183;DHT22;2105;52.300;9.182;2022-10-31T14:40:29;17.90;99.90
4183;DHT22;2105;52.300;9.182;2022-10-31T14:46:00;17.80;99.90
4183;DHT22;2105;52.300;9.182;2022-10-31T14:48:38;17.80;1.00
4183;DHT22;2105;52.300;9.182;2022-10-31T14:51:12;17.80;1.00
4183;DHT22;2105;52.300;9.182;2022-10-31T14:53:44;17.80;1.00
4183;DHT22;2105;52.300;9.182;2022-10-31T14:56:13;17.80;1.00
4183;DHT22;2105;52.300;9.182;2022-10-31T14:58:45;17.80;1.00
4183;DHT22;2105;52.300;9.182;2022-10-31T15:01:19;17.70;1.00
4183;DHT22;2105;52.300;9.182;2022-10-31T15:03:47;17.60;1.00
4183;DHT22;2105;52.300;9.182;2022-10-31T15:06:17;17.60;1.00
4183;DHT22;2105;52.300;9.182;2022-10-31T15:08:46;17.50;1.00
4183;DHT22;2105;52.300;9.182;2022-10-31T15:11:16;17.40;74.90
4183;DHT22;2105;52.300;9.182;2022-10-31T15:13:49;17.40;99.90
4183;DHT22;2105;52.300;9.182;2022-10-31T15:16:20;17.20;1.00
4183;DHT22;2105;52.300;9.182;2022-10-31T15:18:53;17.20;99.90
4183;DHT22;2105;52.300;9.182;2022-10-31T15:21:23;17.10;1.00
4183;DHT22;2105;52.300;9.182;2022-10-31T15:23:52;17.00;99.90
4183;DHT22;2105;52.300;9.182;2022-10-31T15:26:20;16.90;1.00
4183;DHT22;2105;52.300;9.182;2022-10-31T15:28:59;16.80;99.90
4183;DHT22;2105;52.300;9.182;2022-10-31T15:31:27;16.80;1.00
4183;DHT22;2105;52.300;9.182;2022-10-31T15:33:59;16.80;99.90
4183;DHT22;2105;52.300;9.182;2022-10-31T15:36:27;16.70;99.90
4183;DHT22;2105;52.300;9.182;2022-10-31T15:38:55;16.70;1.00
4183;DHT22;2105;52.300;9.182;2022-10-31T15:41:33;16.60;99.90
4183;DHT22;2105;52.300;9.182;2022-10-31T15:44:11;16.60;99.90
4183;DHT22;2105;52.300;9.182;2022-10-31T15:46:39;16.60;1.00
4183;DHT22;2105;52.300;9.182;2022-10-31T15:49:27;16.50;1.00
4183;DHT22;2105;52.300;9.182;2022-10-31T15:52:02;16.40;1.00
4183;DHT22;2105;52.300;9.182;2022-10-31T15:54:30;16.40;99.90
4183;DHT22;2105;52.300;9.182;2022-10-31T15:56:57;16.40;54.90
4183;DHT22;2105;52.300;9.182;2022-10-31T15:59:26;16.40;4.70
4183;DHT22;2105;52.300;9.182;2022-10-31T16:02:01;16.50;1.00
4183;DHT22;2105;52.300;9.182;2022-10-31T16:04:29;16.50;99.90
4183;DHT22;2105;52.300;9.182;2022-10-31T16:07:02;16.50;99.90
4183;DHT22;2105;52.300;9.182;2022-10-31T16:09:30;16.50;99.90
4183;DHT22;2105;52.300;9.182;2022-10-31T16:11:58;16.60;1.00
4183;DHT22;2105;52.300;9.182;2022-10-31T16:14:28;16.60;1.00
4183;DHT22;2105;52.300;9.182;2022-10-31T16:17:05;16.60;1.00
4183;DHT22;2105;52.300;9.182;2022-10-31T16:19:47;16.60;1.00
4183;DHT22;2105;52.300;9.182;2022-10-31T16:22:20;16.50;1.00
4183;DHT22;2105;52.300;9.182;2022-10-31T16:24:51;16.60;1.00
4183;DHT22;2105;52.300;9.182;2022-10-31T16:27:22;16.50;1.00
4183;DHT22;2105;52.300;9.182;2022-10-31T16:29:54;16.50;1.00
4183;DHT22;2105;52.300;9.182;2022-10-31T16:32:32;16.50;1.00
4183;DHT22;2105;52.300;9.182;2022-10-31T16:35:01;16.50;99.90
4183;DHT22;2105;52.300;9.182;2022-10-31T16:37:28;16.50;99.90
4183;DHT22;2105;52.300;9.182;2022-10-31T16:39:55;16.50;99.90